• Join FlightAware (Why Join?)
  • Login
  • US Flag 
11:42AM EDT


 

Airport Tracker/Info


-or-


 

Live Flight TrackerFlight Track Log ✈ N102WY ✈ 31-Oct-2013 ✈ KSHR - KJAC

Flight Track Log - Related Links

Times and Time Zones

All times are in EDT time to prevent confusion due to time zone crossing. See the N102WY flight status page for this flight to view local times or setup timezone preferences in your user account.

Time Position Orientation Groundspeed Altitude Reporting Facility
EDT Latitude Longitude Course Direction KTS MPH feet Rate Location/Type
02:05PM 44.7489 -106.9069 248° West 280 322 12,600  Level Salt Lake Center
02:06PM 44.7092 -107.0003 239° Southwest 280 322 15,800 3,240 Climbing Salt Lake Center
02:07PM 44.6844 -107.1086 252° West 288 331 19,400 3,720 Climbing Salt Lake Center
02:08PM 44.6475 -107.2400 248° West 298 343 23,600 3,540 Climbing Salt Lake Center
02:09PM 44.6181 -107.3461 249° West 295 339 26,800 2,760 Climbing Salt Lake Center
02:10PM 44.6069 -107.5396 248° West  Level Estimated
02:10PM 44.5875 -107.4525 248° West 294 338 29,400  Level Salt Lake Center
02:11PM 44.5586 -107.5589 249° West 292 336 31,700 1,920 Climbing Salt Lake Center
02:12PM 44.5286 -107.6628 248° West 287 330 33,400 1,080 Climbing Salt Lake Center
02:13PM 44.4958 -107.7744 248° West 306 352 34,000 240 Climbing Salt Lake Center
02:14PM 44.4619 -107.8956 249° West 329 379 34,000  Level Salt Lake Center
02:15PM 44.4281 -108.0189 249° West 337 388 34,000  Level Salt Lake Center
02:16PM 44.3842 -108.1708 248° West 349 402 34,000  Level Salt Lake Center
02:17PM 44.3503 -108.3025 250° West 357 411 34,000  Level Salt Lake Center
02:18PM 44.3178 -108.4353 251° West 361 415 34,000  Level Salt Lake Center
02:19PM 44.2850 -108.5703 251° West 366 421 34,000  Level Salt Lake Center
02:20PM 44.2517 -108.7039 251° West 366 421 34,000  Level Salt Lake Center
02:21PM 44.2178 -108.8381 251° West 366 421 34,000  Level Salt Lake Center
02:22PM 44.1842 -108.9706 251° West 364 419 34,000  Level Salt Lake Center
02:23PM 44.1519 -109.0956 250° West 352 405 34,000 -300 Level Salt Lake Center
02:24PM 44.1150 -109.2428 251° West 340 391 33,400 -840 Descending Salt Lake Center
02:25PM 44.0850 -109.3631 251° West 333 383 32,300 -1,080 Descending Salt Lake Center
02:26PM 44.0503 -109.4936 250° West 335 386 31,200 -1,500 Descending Salt Lake Center
02:27PM 44.0175 -109.6169 250° West 352 405 29,200 -2,400 Descending Salt Lake Center
02:28PM 43.9858 -109.7408 250° West 354 407 26,400 -2,940 Descending Salt Lake Center
02:29PM 43.9492 -109.8756 249° West 335 386 23,200 -2,820 Descending Salt Lake Center
02:31PM 43.9211 -109.9847 250° West 318 366 20,600 -2,460 Descending Salt Lake Center
02:32PM 43.8906 -110.0992 250° West 292 336 18,200 -2,040 Descending Salt Lake Center
02:33PM 43.8644 -110.1953 249° West 273 314 16,500 -1,740 Descending Salt Lake Center
02:34PM 43.8394 -110.2972 251° West 263 303 14,700 -1,620 Descending Salt Lake Center
02:35PM 43.8208 -110.3853 254° West 257 296 13,200 -1,500 Descending Salt Lake Center
02:36PM 43.8186 -110.4731 268° West 246 283 11,700 -1,260 Descending Salt Lake Center
02:37PM 43.8047 -110.5642 258° West 247 284 10,600 -1,140 Descending Salt Lake Center
02:38PM 43.7617 -110.6472 234° Southwest 233 268 9,400 -1,080 Descending Salt Lake Center
02:39PM 43.7150 -110.6858 211° Southwest 209 241 8,400 -960 Descending Salt Lake Center
02:40PM 43.6689 -110.7075 199° South 188 216 7,500 -780 Descending Salt Lake Center
02:41PM 43.6403 -110.7217 200° South 138 159 6,900 -600 Descending Salt Lake Center
02:42PM 43.6106 -110.7358 199° South 119 137 6,300 -600 Descending Salt Lake Center